createdAt,value
2022-08-31T00:00:37.183Z,0.40
2022-08-31T00:03:23.715Z,0.38
2022-08-31T00:05:51.417Z,0.30
2022-08-31T00:08:18.679Z,0.40
2022-08-31T00:10:47.900Z,0.40
2022-08-31T00:13:15.185Z,0.40
2022-08-31T00:15:42.493Z,0.40
2022-08-31T00:18:10.251Z,0.30
2022-08-31T00:20:37.639Z,0.30
2022-08-31T00:23:05.390Z,0.40
2022-08-31T00:25:33.886Z,0.30
2022-08-31T00:28:01.189Z,0.40
2022-08-31T00:30:28.568Z,0.30
2022-08-31T00:32:58.355Z,0.40
2022-08-31T00:35:26.448Z,0.30
2022-08-31T00:37:53.867Z,0.30
2022-08-31T00:40:21.422Z,0.30
2022-08-31T00:42:48.745Z,0.40
2022-08-31T00:45:16.515Z,0.30
2022-08-31T00:47:43.902Z,0.30
2022-08-31T00:50:12.658Z,0.40
2022-08-31T00:52:41.994Z,0.40
2022-08-31T00:55:14.091Z,0.40
2022-08-31T00:57:43.897Z,0.40
2022-08-31T01:00:13.699Z,0.30
2022-08-31T01:02:41.032Z,0.50
2022-08-31T01:05:08.868Z,0.50
2022-08-31T01:07:36.757Z,0.68
2022-08-31T01:10:04.835Z,0.70
2022-08-31T01:12:32.232Z,0.50
2022-08-31T01:15:02.486Z,0.60
2022-08-31T01:17:30.050Z,1.20
2022-08-31T01:20:08.879Z,1.40
2022-08-31T01:22:50.407Z,1.35
2022-08-31T01:25:17.891Z,1.60
2022-08-31T01:27:45.392Z,1.42
2022-08-31T01:30:13.558Z,1.73
2022-08-31T01:32:41.000Z,1.08
2022-08-31T01:35:11.329Z,0.95
2022-08-31T01:37:39.024Z,1.10
2022-08-31T01:40:07.669Z,1.00
2022-08-31T01:42:35.010Z,1.20
2022-08-31T01:45:02.657Z,1.08
2022-08-31T01:47:29.935Z,0.80
2022-08-31T01:49:57.728Z,1.02
2022-08-31T01:52:27.747Z,0.70
2022-08-31T01:54:55.522Z,0.77
2022-08-31T01:57:32.917Z,0.60
2022-08-31T02:00:02.626Z,0.65
2022-08-31T02:02:30.110Z,0.80
2022-08-31T02:04:59.016Z,0.88
2022-08-31T02:07:27.045Z,0.75
2022-08-31T02:09:55.112Z,0.88
2022-08-31T02:12:22.370Z,0.60
2022-08-31T02:14:49.670Z,0.70
2022-08-31T02:17:17.111Z,0.70
2022-08-31T02:19:44.472Z,0.70
2022-08-31T02:22:11.756Z,0.80
2022-08-31T02:24:39.022Z,0.80
2022-08-31T02:27:06.348Z,0.65
2022-08-31T02:29:33.602Z,0.60
2022-08-31T02:32:00.901Z,0.93
2022-08-31T02:34:29.465Z,0.75
2022-08-31T02:36:57.050Z,0.80
2022-08-31T02:39:24.350Z,0.90
2022-08-31T02:41:51.932Z,0.75
2022-08-31T02:44:19.175Z,0.52
2022-08-31T02:46:46.586Z,0.70
2022-08-31T02:49:14.327Z,0.60
2022-08-31T02:51:42.637Z,0.70
2022-08-31T02:54:10.805Z,0.60
2022-08-31T02:56:41.156Z,0.70
2022-08-31T02:59:09.143Z,0.70
2022-08-31T03:01:37.520Z,0.63
2022-08-31T03:04:05.302Z,1.08
2022-08-31T03:06:32.826Z,0.60
2022-08-31T03:09:00.319Z,0.70
2022-08-31T03:11:27.916Z,0.60
2022-08-31T03:13:58.414Z,0.60
2022-08-31T03:16:26.097Z,0.80
2022-08-31T03:18:53.786Z,0.60
2022-08-31T03:21:21.082Z,0.60
2022-08-31T03:23:48.365Z,0.70
2022-08-31T03:26:15.719Z,0.63
2022-08-31T03:28:42.989Z,0.60
2022-08-31T03:31:10.840Z,0.90
2022-08-31T03:33:38.274Z,1.02
2022-08-31T03:36:05.744Z,0.90
2022-08-31T03:38:33.037Z,0.60
2022-08-31T03:41:00.475Z,0.85
2022-08-31T03:43:27.747Z,0.75
2022-08-31T03:45:55.198Z,0.90
2022-08-31T03:48:23.044Z,0.90
2022-08-31T03:50:50.408Z,0.95
2022-08-31T03:53:22.434Z,0.82
2022-08-31T03:55:50.440Z,1.23
2022-08-31T03:58:17.724Z,1.10
2022-08-31T04:00:45.296Z,1.30
2022-08-31T04:03:14.064Z,1.25
2022-08-31T04:05:44.214Z,0.90
2022-08-31T04:08:11.822Z,1.23
2022-08-31T04:10:40.151Z,1.20
2022-08-31T04:13:07.459Z,1.33
2022-08-31T04:15:35.189Z,1.55
2022-08-31T04:18:02.449Z,1.15
2022-08-31T04:20:29.969Z,1.58
2022-08-31T04:22:57.627Z,1.60
2022-08-31T04:25:24.908Z,2.25
2022-08-31T04:27:54.297Z,2.00
2022-08-31T04:30:21.876Z,2.13
2022-08-31T04:32:49.446Z,2.30
2022-08-31T04:35:16.926Z,2.15
2022-08-31T04:37:46.896Z,2.22
2022-08-31T04:40:21.345Z,2.53
2022-08-31T04:42:53.919Z,2.33
2022-08-31T04:45:21.350Z,2.55
2022-08-31T04:47:48.611Z,2.30
2022-08-31T04:50:16.584Z,2.45
2022-08-31T04:52:45.153Z,2.55
2022-08-31T04:55:30.634Z,2.33
2022-08-31T04:57:57.996Z,2.45
2022-08-31T05:00:25.546Z,2.05
2022-08-31T05:02:54.149Z,2.53
2022-08-31T05:05:21.487Z,2.25
2022-08-31T05:07:49.055Z,1.92
2022-08-31T05:10:16.526Z,2.05
2022-08-31T05:12:44.451Z,2.10
2022-08-31T05:15:11.901Z,1.95
2022-08-31T05:17:39.154Z,1.90
2022-08-31T05:20:06.605Z,1.80
2022-08-31T05:22:33.973Z,1.40
2022-08-31T05:25:01.734Z,1.58
2022-08-31T05:27:29.051Z,1.38
2022-08-31T05:29:56.311Z,1.10
2022-08-31T05:32:23.605Z,1.17
2022-08-31T05:34:52.763Z,1.30
2022-08-31T05:37:20.044Z,1.05
2022-08-31T05:42:21.177Z,1.23
2022-08-31T05:44:48.556Z,1.10
2022-08-31T05:47:15.821Z,1.00
2022-08-31T05:49:43.747Z,1.17
2022-08-31T05:52:11.238Z,0.95
2022-08-31T05:54:40.132Z,1.10
2022-08-31T05:57:08.038Z,0.88
2022-08-31T05:59:36.203Z,0.70
2022-08-31T06:02:04.381Z,1.10
2022-08-31T06:04:32.167Z,0.70
2022-08-31T06:06:59.484Z,0.98
2022-08-31T06:09:27.180Z,0.60
2022-08-31T06:11:55.110Z,1.00
2022-08-31T06:14:25.920Z,0.63
2022-08-31T06:16:56.154Z,0.68
2022-08-31T06:19:24.114Z,0.80
2022-08-31T06:21:51.852Z,0.63
2022-08-31T06:24:19.915Z,0.77
2022-08-31T06:26:57.929Z,0.50
2022-08-31T06:29:26.847Z,0.60
2022-08-31T06:31:54.510Z,0.43
2022-08-31T06:34:23.484Z,0.50
2022-08-31T06:36:50.841Z,0.45
2022-08-31T06:39:18.723Z,0.55
2022-08-31T06:41:45.988Z,0.52
2022-08-31T06:44:14.151Z,0.50
2022-08-31T06:46:42.157Z,0.70
2022-08-31T06:49:14.459Z,0.60
2022-08-31T06:51:41.748Z,0.60
2022-08-31T06:54:28.980Z,0.55
2022-08-31T06:57:02.852Z,0.60
2022-08-31T06:59:30.339Z,0.50
2022-08-31T07:02:01.105Z,0.50
2022-08-31T07:04:28.657Z,0.43
2022-08-31T07:06:56.088Z,0.40
2022-08-31T07:09:23.853Z,0.60
2022-08-31T07:11:52.359Z,0.40
2022-08-31T07:14:22.168Z,0.45
2022-08-31T07:16:49.875Z,0.50
2022-08-31T07:19:17.346Z,0.50
2022-08-31T07:21:49.165Z,0.50
2022-08-31T07:24:18.110Z,0.45
2022-08-31T07:26:49.520Z,0.43
2022-08-31T07:29:18.676Z,0.40
2022-08-31T07:31:50.444Z,0.40
2022-08-31T07:34:19.310Z,0.40
2022-08-31T07:37:06.306Z,0.40
2022-08-31T07:39:52.434Z,0.40
2022-08-31T07:42:31.114Z,0.57
2022-08-31T07:44:59.323Z,0.40
2022-08-31T07:47:29.608Z,0.60
2022-08-31T07:49:58.559Z,0.52
2022-08-31T07:52:27.594Z,0.50
2022-08-31T07:54:55.946Z,0.47
2022-08-31T07:57:25.988Z,0.40
2022-08-31T08:00:04.400Z,0.50
2022-08-31T08:02:38.357Z,0.60
2022-08-31T08:05:21.029Z,0.65
2022-08-31T08:07:55.100Z,0.50
2022-08-31T08:10:24.377Z,0.40
2022-08-31T08:13:11.643Z,0.55
2022-08-31T08:15:40.453Z,0.40
2022-08-31T08:18:10.874Z,0.40
2022-08-31T08:20:39.011Z,0.50
2022-08-31T08:23:13.582Z,0.40
2022-08-31T08:25:55.999Z,0.60
2022-08-31T08:28:42.346Z,0.40
2022-08-31T08:31:14.002Z,0.50
2022-08-31T08:33:41.424Z,0.52
2022-08-31T08:36:08.950Z,0.63
2022-08-31T08:38:39.270Z,0.57
2022-08-31T08:41:08.238Z,0.50
2022-08-31T08:43:36.819Z,0.50
2022-08-31T08:46:20.180Z,0.65
2022-08-31T08:48:55.770Z,0.50
2022-08-31T08:51:25.604Z,0.63
2022-08-31T08:53:57.773Z,0.70
2022-08-31T08:56:33.255Z,0.60
2022-08-31T08:59:01.325Z,0.60
2022-08-31T09:01:29.308Z,0.60
2022-08-31T09:04:17.224Z,0.80
2022-08-31T09:06:46.431Z,0.60
2022-08-31T09:09:20.468Z,0.50
2022-08-31T09:12:12.581Z,0.70
2022-08-31T09:14:48.924Z,0.75
2022-08-31T09:17:25.063Z,0.70
2022-08-31T09:20:00.352Z,0.60
2022-08-31T09:22:51.064Z,0.85
2022-08-31T09:25:19.985Z,0.60
2022-08-31T09:27:57.726Z,0.60
2022-08-31T09:30:43.790Z,0.68
2022-08-31T09:33:30.759Z,0.50
2022-08-31T09:36:14.726Z,0.90
2022-08-31T09:38:43.534Z,0.88
2022-08-31T09:41:31.455Z,0.70
2022-08-31T09:44:20.738Z,0.70
2022-08-31T09:46:49.324Z,0.70
2022-08-31T09:49:20.814Z,0.70
2022-08-31T09:54:34.996Z,0.80
2022-08-31T09:57:03.911Z,0.70
2022-08-31T09:59:31.242Z,0.70
2022-08-31T10:02:01.319Z,0.77
2022-08-31T10:04:32.383Z,0.70
2022-08-31T10:07:08.098Z,0.75
2022-08-31T10:09:49.364Z,0.60
2022-08-31T10:12:24.895Z,0.85
2022-08-31T10:15:04.115Z,0.90
2022-08-31T10:17:51.655Z,0.70
2022-08-31T10:20:29.760Z,0.75
2022-08-31T10:22:59.291Z,0.85
2022-08-31T10:25:31.172Z,0.73
2022-08-31T10:28:01.241Z,0.75
2022-08-31T10:30:35.810Z,0.70
2022-08-31T10:33:04.988Z,1.00
2022-08-31T10:35:37.825Z,0.60
2022-08-31T10:38:20.153Z,0.68
2022-08-31T10:40:53.438Z,0.68
2022-08-31T10:43:23.827Z,0.60
2022-08-31T10:45:54.794Z,0.80
2022-08-31T10:48:24.644Z,0.60
2022-08-31T10:51:14.124Z,0.80
2022-08-31T10:53:44.387Z,0.68
2022-08-31T10:56:23.965Z,0.60
2022-08-31T10:59:14.508Z,0.80
2022-08-31T11:02:00.710Z,0.70
2022-08-31T11:04:29.353Z,0.70
2022-08-31T11:07:07.084Z,1.15
2022-08-31T11:09:40.443Z,0.70
2022-08-31T11:12:10.511Z,0.80
2022-08-31T11:15:09.869Z,0.60
2022-08-31T11:17:50.080Z,0.85
2022-08-31T11:20:20.670Z,0.90
2022-08-31T11:22:50.918Z,0.87
2022-08-31T11:25:47.456Z,0.70
2022-08-31T11:28:29.070Z,0.80
2022-08-31T11:33:28.206Z,0.70
2022-08-31T11:36:06.090Z,0.60
2022-08-31T11:38:48.015Z,0.60
2022-08-31T11:41:33.885Z,0.80
2022-08-31T11:44:04.417Z,0.80
2022-08-31T11:46:34.741Z,0.70
2022-08-31T11:49:02.045Z,0.65
2022-08-31T11:51:40.105Z,0.88
2022-08-31T11:54:33.271Z,0.82
2022-08-31T11:57:00.578Z,0.77
2022-08-31T11:59:32.635Z,0.60
2022-08-31T12:02:02.069Z,0.68
2022-08-31T12:05:00.314Z,0.80
2022-08-31T12:07:36.689Z,0.70
2022-08-31T12:10:19.149Z,0.80
2022-08-31T12:12:49.548Z,0.80
2022-08-31T12:15:19.653Z,0.63
2022-08-31T12:17:51.904Z,0.70
2022-08-31T12:20:57.850Z,1.20
2022-08-31T12:23:40.714Z,0.80
2022-08-31T12:26:34.347Z,0.57
2022-08-31T12:29:20.740Z,0.90
2022-08-31T12:32:11.074Z,0.82
2022-08-31T12:34:41.508Z,0.60
2022-08-31T12:37:34.972Z,0.60
2022-08-31T12:40:08.413Z,0.70
2022-08-31T12:42:39.534Z,0.63
2022-08-31T12:45:08.665Z,0.60
2022-08-31T12:47:51.728Z,0.70
2022-08-31T12:50:27.925Z,0.70
2022-08-31T12:52:57.975Z,0.70
2022-08-31T12:55:29.334Z,0.60
2022-08-31T12:57:56.686Z,0.70
2022-08-31T13:00:26.004Z,0.88
2022-08-31T13:02:54.943Z,1.50
2022-08-31T13:05:22.340Z,0.70
2022-08-31T13:07:49.590Z,0.90
2022-08-31T13:10:22.669Z,0.60
2022-08-31T13:12:56.857Z,0.85
2022-08-31T13:15:24.170Z,0.70
2022-08-31T13:17:53.590Z,0.88
2022-08-31T13:20:21.758Z,0.70
2022-08-31T13:22:56.358Z,0.60
2022-08-31T13:25:44.797Z,0.63
2022-08-31T13:28:14.495Z,0.83
2022-08-31T13:30:55.317Z,0.70
2022-08-31T13:33:31.189Z,0.70
2022-08-31T13:36:32.186Z,0.70
2022-08-31T13:39:02.898Z,0.60
2022-08-31T13:41:38.345Z,0.67
2022-08-31T13:44:10.038Z,0.50
2022-08-31T13:46:43.814Z,0.70
2022-08-31T13:49:29.666Z,0.60
2022-08-31T13:51:57.260Z,0.80
2022-08-31T13:54:30.519Z,0.73
2022-08-31T13:57:09.264Z,0.80
2022-08-31T13:59:37.810Z,0.70
2022-08-31T14:02:05.674Z,0.55
2022-08-31T14:05:05.064Z,0.65
2022-08-31T14:07:35.499Z,0.52
2022-08-31T14:10:08.650Z,1.00
2022-08-31T14:12:37.847Z,0.70
2022-08-31T14:15:11.052Z,0.50
2022-08-31T14:17:42.542Z,1.00
2022-08-31T14:22:42.514Z,0.70
2022-08-31T14:25:12.324Z,0.50
2022-08-31T14:27:43.176Z,0.80
2022-08-31T14:30:10.659Z,1.10
2022-08-31T14:32:37.963Z,0.75
2022-08-31T14:35:11.977Z,0.60
2022-08-31T14:37:44.189Z,0.80
2022-08-31T14:40:13.839Z,0.77
2022-08-31T14:42:41.179Z,0.60
2022-08-31T14:45:18.611Z,0.50
2022-08-31T14:47:47.911Z,0.63
2022-08-31T14:50:18.255Z,0.82
2022-08-31T14:52:46.635Z,0.68
2022-08-31T14:55:14.973Z,0.82
2022-08-31T14:57:43.822Z,0.63
2022-08-31T15:00:23.042Z,0.73
2022-08-31T15:02:53.382Z,0.80
2022-08-31T15:05:25.398Z,0.98
2022-08-31T15:07:54.125Z,0.75
2022-08-31T15:10:22.934Z,0.70
2022-08-31T15:12:50.459Z,0.70
2022-08-31T15:15:20.973Z,0.70
2022-08-31T15:17:50.332Z,0.60
2022-08-31T15:20:21.115Z,0.73
2022-08-31T15:22:48.682Z,0.80
2022-08-31T15:25:17.000Z,0.60
2022-08-31T15:27:44.841Z,0.45
2022-08-31T15:30:17.435Z,0.60
2022-08-31T15:32:46.778Z,0.70
2022-08-31T15:35:18.636Z,0.75
2022-08-31T15:37:53.090Z,0.50
2022-08-31T15:40:22.086Z,0.50
2022-08-31T15:42:50.963Z,0.80
2022-08-31T15:45:18.261Z,0.50
2022-08-31T15:48:04.490Z,0.57
2022-08-31T15:50:32.616Z,0.60
2022-08-31T15:53:05.174Z,0.75
2022-08-31T15:55:38.091Z,0.60
2022-08-31T15:58:05.402Z,0.82
2022-08-31T16:00:33.959Z,0.80
2022-08-31T16:03:02.038Z,0.60
2022-08-31T16:05:35.738Z,0.75
2022-08-31T16:08:03.360Z,0.77
2022-08-31T16:10:30.876Z,0.70
2022-08-31T16:12:58.165Z,0.90
2022-08-31T16:15:27.387Z,0.50
2022-08-31T16:17:57.588Z,0.60
2022-08-31T16:20:27.397Z,0.68
2022-08-31T16:22:54.888Z,0.65
2022-08-31T16:25:22.197Z,1.02
2022-08-31T16:27:49.878Z,0.70
2022-08-31T16:30:17.911Z,0.85
2022-08-31T16:32:48.184Z,0.80
2022-08-31T16:35:19.468Z,0.80
2022-08-31T16:37:46.799Z,1.00
2022-08-31T16:40:14.308Z,0.75
2022-08-31T16:42:43.609Z,0.70
2022-08-31T16:45:11.683Z,0.80
2022-08-31T16:47:39.038Z,0.60
2022-08-31T16:50:08.741Z,0.70
2022-08-31T16:52:36.366Z,0.88
2022-08-31T16:55:03.733Z,0.65
2022-08-31T16:57:32.727Z,0.98
2022-08-31T17:00:00.448Z,0.73
2022-08-31T17:02:28.427Z,0.60
2022-08-31T17:05:00.532Z,0.70
2022-08-31T17:07:29.020Z,1.02
2022-08-31T17:09:57.593Z,1.00
2022-08-31T17:12:27.319Z,0.60
2022-08-31T17:14:56.103Z,0.68
2022-08-31T17:17:25.369Z,1.02
2022-08-31T17:19:54.131Z,1.33
2022-08-31T17:22:29.998Z,0.52
2022-08-31T17:25:02.985Z,1.05
2022-08-31T17:27:32.232Z,1.10
2022-08-31T17:30:05.396Z,0.95
2022-08-31T17:32:32.701Z,0.95
2022-08-31T17:35:00.193Z,0.88
2022-08-31T17:37:30.401Z,0.60
2022-08-31T17:39:59.282Z,1.02
2022-08-31T17:42:28.142Z,0.93
2022-08-31T17:44:56.447Z,0.73
2022-08-31T17:47:24.787Z,0.80
2022-08-31T17:49:52.736Z,0.65
2022-08-31T17:52:21.758Z,1.52
2022-08-31T17:54:51.270Z,0.73
2022-08-31T17:57:19.882Z,0.85
2022-08-31T17:59:51.259Z,0.80
2022-08-31T18:02:21.542Z,1.10
2022-08-31T18:04:49.177Z,1.25
2022-08-31T18:07:16.574Z,1.00
2022-08-31T18:09:45.548Z,0.70
2022-08-31T18:12:13.655Z,0.90
2022-08-31T18:14:41.662Z,0.85
2022-08-31T18:17:10.203Z,0.90
2022-08-31T18:19:37.896Z,1.05
2022-08-31T18:22:05.347Z,0.70
2022-08-31T18:24:36.850Z,1.00
2022-08-31T18:27:07.027Z,0.70
2022-08-31T18:29:35.275Z,1.00
2022-08-31T18:32:04.177Z,0.60
2022-08-31T18:34:32.639Z,0.93
2022-08-31T18:37:00.432Z,0.98
2022-08-31T18:39:51.519Z,1.10
2022-08-31T18:42:38.420Z,0.75
2022-08-31T18:45:21.343Z,0.80
2022-08-31T18:50:43.033Z,1.10
2022-08-31T18:53:14.996Z,1.33
2022-08-31T18:55:43.607Z,0.80
2022-08-31T18:58:11.039Z,1.13
2022-08-31T19:00:40.396Z,0.82
2022-08-31T19:03:07.949Z,1.00
2022-08-31T19:05:38.751Z,1.00
2022-08-31T19:08:06.333Z,0.80
2022-08-31T19:10:34.800Z,0.80
2022-08-31T19:13:07.322Z,0.68
2022-08-31T19:15:38.666Z,0.88
2022-08-31T19:18:06.252Z,0.77
2022-08-31T19:20:35.527Z,1.10
2022-08-31T19:23:03.052Z,0.77
2022-08-31T19:25:31.931Z,1.30
2022-08-31T19:28:01.460Z,1.15
2022-08-31T19:30:28.913Z,1.27
2022-08-31T19:32:56.966Z,1.00
2022-08-31T19:35:27.053Z,0.82
2022-08-31T19:37:56.501Z,1.30
2022-08-31T19:40:35.639Z,1.30
2022-08-31T19:45:50.913Z,1.20
2022-08-31T19:48:23.622Z,1.25
2022-08-31T19:50:51.611Z,0.90
2022-08-31T19:53:22.117Z,0.90
2022-08-31T19:55:50.794Z,1.02
2022-08-31T19:58:19.095Z,0.77
2022-08-31T20:00:48.058Z,1.02
2022-08-31T20:03:16.200Z,0.98
2022-08-31T20:05:44.036Z,1.10
2022-08-31T20:08:12.366Z,0.82
2022-08-31T20:10:41.077Z,1.10
2022-08-31T20:13:09.910Z,1.10
2022-08-31T20:15:41.534Z,1.00
2022-08-31T20:20:45.635Z,1.02
2022-08-31T20:23:16.666Z,0.98
2022-08-31T20:25:45.259Z,1.10
2022-08-31T20:28:12.895Z,1.25
2022-08-31T20:30:41.196Z,1.10
2022-08-31T20:33:08.912Z,1.10
2022-08-31T20:35:38.090Z,1.23
2022-08-31T20:38:06.181Z,1.08
2022-08-31T20:40:33.793Z,1.23
2022-08-31T20:43:01.436Z,1.50
2022-08-31T20:45:28.761Z,1.35
2022-08-31T20:48:14.941Z,1.08
2022-08-31T20:50:42.884Z,1.20
2022-08-31T20:53:24.849Z,1.30
2022-08-31T20:56:06.963Z,0.95
2022-08-31T20:58:34.267Z,1.23
2022-08-31T21:01:05.997Z,1.00
2022-08-31T21:03:34.051Z,0.93
2022-08-31T21:06:08.304Z,1.10
2022-08-31T21:08:38.290Z,0.85
2022-08-31T21:11:18.569Z,0.95
2022-08-31T21:13:46.828Z,1.20
2022-08-31T21:16:15.248Z,0.88
2022-08-31T21:18:42.597Z,1.05
2022-08-31T21:21:15.245Z,0.80
2022-08-31T21:23:42.927Z,0.80
2022-08-31T21:26:17.060Z,0.73
2022-08-31T21:28:46.320Z,0.90
2022-08-31T21:31:18.598Z,0.70
2022-08-31T21:34:00.520Z,0.70
2022-08-31T21:36:27.978Z,0.82
2022-08-31T21:38:56.462Z,0.90
2022-08-31T21:41:26.950Z,0.65
2022-08-31T21:43:55.061Z,0.70
2022-08-31T21:46:25.009Z,0.82
2022-08-31T21:48:53.521Z,0.70
2022-08-31T21:51:24.983Z,0.73
2022-08-31T21:53:57.583Z,0.60
2022-08-31T21:56:26.425Z,0.90
2022-08-31T21:58:53.865Z,0.50
2022-08-31T22:01:23.903Z,0.82
2022-08-31T22:03:54.360Z,0.60
2022-08-31T22:06:26.645Z,0.70
2022-08-31T22:08:55.734Z,0.55
2022-08-31T22:11:23.789Z,0.60
2022-08-31T22:13:52.787Z,0.50
2022-08-31T22:16:20.166Z,0.70
2022-08-31T22:19:06.698Z,0.77
2022-08-31T22:21:35.444Z,0.70
2022-08-31T22:24:04.519Z,0.70
2022-08-31T22:26:34.100Z,0.73
2022-08-31T22:29:01.457Z,0.50
2022-08-31T22:31:28.843Z,0.68
2022-08-31T22:33:56.862Z,0.98
2022-08-31T22:36:31.464Z,0.70
2022-08-31T22:39:04.743Z,0.70
2022-08-31T22:41:32.834Z,0.57
2022-08-31T22:44:00.307Z,0.80
2022-08-31T22:46:28.512Z,0.95
2022-08-31T22:48:55.860Z,0.70
2022-08-31T22:51:23.256Z,0.60
2022-08-31T22:53:53.605Z,0.50
2022-08-31T22:56:28.622Z,0.73
2022-08-31T22:58:56.855Z,0.70
2022-08-31T23:01:26.678Z,0.80
2022-08-31T23:03:55.948Z,0.60
2022-08-31T23:06:23.867Z,0.63
2022-08-31T23:08:52.322Z,0.82
2022-08-31T23:11:20.200Z,0.70
2022-08-31T23:13:57.564Z,0.70
2022-08-31T23:16:37.117Z,0.85
2022-08-31T23:19:11.327Z,0.60
2022-08-31T23:21:55.048Z,0.70
2022-08-31T23:24:32.800Z,0.80
2022-08-31T23:27:04.201Z,0.75
2022-08-31T23:29:47.159Z,0.65
2022-08-31T23:32:17.451Z,0.75
2022-08-31T23:34:44.943Z,0.70
2022-08-31T23:37:12.237Z,0.82
2022-08-31T23:39:43.423Z,0.70
2022-08-31T23:42:12.136Z,1.08
2022-08-31T23:44:42.636Z,0.70
2022-08-31T23:47:21.554Z,0.80
2022-08-31T23:49:53.368Z,0.60
2022-08-31T23:52:22.216Z,0.70
2022-08-31T23:54:52.245Z,0.70
2022-08-31T23:57:32.454Z,0.70
